sensor_id;sensor_type;location;lat;lon;timestamp;P1;durP1;ratioP1;P2;durP2;ratioP2
65174;SDS011;51761;42.126;24.752;2024-02-28T00:01:01;33.70;;;9.60;;
65174;SDS011;51761;42.126;24.752;2024-02-28T00:03:26;35.72;;;11.15;;
65174;SDS011;51761;42.126;24.752;2024-02-28T00:05:52;41.03;;;10.65;;
65174;SDS011;51761;42.126;24.752;2024-02-28T00:08:17;42.92;;;12.35;;
65174;SDS011;51761;42.126;24.752;2024-02-28T00:10:44;51.03;;;11.85;;
65174;SDS011;51761;42.126;24.752;2024-02-28T00:13:09;44.15;;;11.00;;
65174;SDS011;51761;42.126;24.752;2024-02-28T00:15:35;28.30;;;11.02;;
65174;SDS011;51761;42.126;24.752;2024-02-28T00:18:00;35.35;;;11.38;;
65174;SDS011;51761;42.126;24.752;2024-02-28T00:20:25;31.67;;;10.18;;
65174;SDS011;51761;42.126;24.752;2024-02-28T00:22:52;41.22;;;11.80;;
65174;SDS011;51761;42.126;24.752;2024-02-28T00:25:17;30.77;;;10.68;;
65174;SDS011;51761;42.126;24.752;2024-02-28T00:27:43;40.95;;;12.43;;
65174;SDS011;51761;42.126;24.752;2024-02-28T00:30:08;33.22;;;10.90;;
65174;SDS011;51761;42.126;24.752;2024-02-28T00:32:34;35.83;;;11.20;;
65174;SDS011;51761;42.126;24.752;2024-02-28T00:34:59;33.30;;;10.98;;
65174;SDS011;51761;42.126;24.752;2024-02-28T00:37:25;26.15;;;11.00;;
65174;SDS011;51761;42.126;24.752;2024-02-28T00:39:50;35.63;;;11.68;;
65174;SDS011;51761;42.126;24.752;2024-02-28T00:42:16;33.03;;;11.68;;
65174;SDS011;51761;42.126;24.752;2024-02-28T00:44:41;44.38;;;11.45;;
65174;SDS011;51761;42.126;24.752;2024-02-28T00:47:08;41.05;;;11.70;;
65174;SDS011;51761;42.126;24.752;2024-02-28T00:49:33;32.08;;;11.15;;
65174;SDS011;51761;42.126;24.752;2024-02-28T00:51:59;31.10;;;10.60;;
65174;SDS011;51761;42.126;24.752;2024-02-28T00:54:25;29.73;;;11.70;;
65174;SDS011;51761;42.126;24.752;2024-02-28T00:56:51;30.88;;;11.43;;
65174;SDS011;51761;42.126;24.752;2024-02-28T00:59:16;33.95;;;11.32;;
65174;SDS011;51761;42.126;24.752;2024-02-28T01:01:41;29.77;;;10.07;;
65174;SDS011;51761;42.126;24.752;2024-02-28T01:04:07;29.65;;;11.00;;
65174;SDS011;51761;42.126;24.752;2024-02-28T01:06:32;41.42;;;12.20;;
65174;SDS011;51761;42.126;24.752;2024-02-28T01:08:58;28.92;;;11.52;;
65174;SDS011;51761;42.126;24.752;2024-02-28T01:11:24;29.98;;;10.85;;
65174;SDS011;51761;42.126;24.752;2024-02-28T01:13:49;31.38;;;10.93;;
65174;SDS011;51761;42.126;24.752;2024-02-28T01:16:15;29.75;;;11.80;;
65174;SDS011;51761;42.126;24.752;2024-02-28T01:18:40;31.88;;;10.85;;
65174;SDS011;51761;42.126;24.752;2024-02-28T01:21:05;35.42;;;11.63;;
65174;SDS011;51761;42.126;24.752;2024-02-28T01:23:30;43.65;;;12.20;;
65174;SDS011;51761;42.126;24.752;2024-02-28T01:25:56;37.95;;;12.52;;
65174;SDS011;51761;42.126;24.752;2024-02-28T01:28:21;42.88;;;11.82;;
65174;SDS011;51761;42.126;24.752;2024-02-28T01:30:47;36.10;;;12.77;;
65174;SDS011;51761;42.126;24.752;2024-02-28T01:33:13;29.48;;;11.70;;
65174;SDS011;51761;42.126;24.752;2024-02-28T01:35:38;32.45;;;11.50;;
65174;SDS011;51761;42.126;24.752;2024-02-28T01:38:04;31.77;;;10.48;;
65174;SDS011;51761;42.126;24.752;2024-02-28T01:40:29;31.40;;;10.00;;
65174;SDS011;51761;42.126;24.752;2024-02-28T01:42:54;32.13;;;11.48;;
65174;SDS011;51761;42.126;24.752;2024-02-28T01:45:20;32.50;;;10.70;;
65174;SDS011;51761;42.126;24.752;2024-02-28T01:47:45;39.85;;;11.48;;
65174;SDS011;51761;42.126;24.752;2024-02-28T01:50:10;48.40;;;11.20;;
65174;SDS011;51761;42.126;24.752;2024-02-28T01:52:37;32.22;;;10.52;;
65174;SDS011;51761;42.126;24.752;2024-02-28T01:55:03;42.53;;;11.23;;
65174;SDS011;51761;42.126;24.752;2024-02-28T01:57:31;35.67;;;11.35;;
65174;SDS011;51761;42.126;24.752;2024-02-28T01:59:56;62.05;;;12.38;;
65174;SDS011;51761;42.126;24.752;2024-02-28T02:02:22;49.28;;;11.98;;
65174;SDS011;51761;42.126;24.752;2024-02-28T02:04:47;35.60;;;10.65;;
65174;SDS011;51761;42.126;24.752;2024-02-28T02:07:12;44.53;;;10.82;;
65174;SDS011;51761;42.126;24.752;2024-02-28T02:09:38;45.08;;;12.13;;
65174;SDS011;51761;42.126;24.752;2024-02-28T02:12:03;39.35;;;12.75;;
65174;SDS011;51761;42.126;24.752;2024-02-28T02:14:29;39.88;;;10.82;;
65174;SDS011;51761;42.126;24.752;2024-02-28T02:16:54;37.83;;;11.88;;
65174;SDS011;51761;42.126;24.752;2024-02-28T02:19:19;37.03;;;11.63;;
65174;SDS011;51761;42.126;24.752;2024-02-28T02:22:03;37.55;;;12.93;;
65174;SDS011;51761;42.126;24.752;2024-02-28T02:24:30;39.13;;;11.32;;
65174;SDS011;51761;42.126;24.752;2024-02-28T02:26:59;31.25;;;11.02;;
65174;SDS011;51761;42.126;24.752;2024-02-28T02:29:24;27.45;;;11.07;;
65174;SDS011;51761;42.126;24.752;2024-02-28T02:31:49;32.90;;;10.18;;
65174;SDS011;51761;42.126;24.752;2024-02-28T02:34:15;34.20;;;10.88;;
65174;SDS011;51761;42.126;24.752;2024-02-28T02:36:40;29.08;;;10.20;;
65174;SDS011;51761;42.126;24.752;2024-02-28T02:39:05;31.38;;;10.60;;
65174;SDS011;51761;42.126;24.752;2024-02-28T02:41:33;46.33;;;13.40;;
65174;SDS011;51761;42.126;24.752;2024-02-28T02:43:58;41.45;;;10.55;;
65174;SDS011;51761;42.126;24.752;2024-02-28T02:46:23;31.63;;;11.20;;
65174;SDS011;51761;42.126;24.752;2024-02-28T02:48:49;26.25;;;10.10;;
65174;SDS011;51761;42.126;24.752;2024-02-28T02:51:14;28.52;;;11.27;;
65174;SDS011;51761;42.126;24.752;2024-02-28T02:53:39;32.05;;;11.95;;
65174;SDS011;51761;42.126;24.752;2024-02-28T02:56:05;41.08;;;12.20;;
65174;SDS011;51761;42.126;24.752;2024-02-28T02:58:30;32.90;;;10.48;;
65174;SDS011;51761;42.126;24.752;2024-02-28T03:00:56;34.13;;;10.70;;
65174;SDS011;51761;42.126;24.752;2024-02-28T03:03:21;32.25;;;12.35;;
65174;SDS011;51761;42.126;24.752;2024-02-28T03:05:46;32.25;;;10.73;;
65174;SDS011;51761;42.126;24.752;2024-02-28T03:08:12;37.38;;;11.00;;
65174;SDS011;51761;42.126;24.752;2024-02-28T03:10:37;31.00;;;10.48;;
65174;SDS011;51761;42.126;24.752;2024-02-28T03:13:02;35.72;;;12.02;;
65174;SDS011;51761;42.126;24.752;2024-02-28T03:15:28;32.50;;;11.43;;
65174;SDS011;51761;42.126;24.752;2024-02-28T03:17:53;36.80;;;12.05;;
65174;SDS011;51761;42.126;24.752;2024-02-28T03:20:18;35.22;;;10.88;;
65174;SDS011;51761;42.126;24.752;2024-02-28T03:22:44;41.40;;;11.45;;
65174;SDS011;51761;42.126;24.752;2024-02-28T03:25:09;34.15;;;11.13;;
65174;SDS011;51761;42.126;24.752;2024-02-28T03:27:34;38.33;;;10.95;;
65174;SDS011;51761;42.126;24.752;2024-02-28T03:30:00;44.05;;;13.73;;
65174;SDS011;51761;42.126;24.752;2024-02-28T03:32:26;40.85;;;12.95;;
65174;SDS011;51761;42.126;24.752;2024-02-28T03:34:52;48.67;;;12.82;;
65174;SDS011;51761;42.126;24.752;2024-02-28T03:37:17;31.80;;;12.65;;
65174;SDS011;51761;42.126;24.752;2024-02-28T03:39:42;66.60;;;21.88;;
65174;SDS011;51761;42.126;24.752;2024-02-28T03:42:08;38.10;;;13.98;;
65174;SDS011;51761;42.126;24.752;2024-02-28T03:44:33;38.40;;;12.88;;
65174;SDS011;51761;42.126;24.752;2024-02-28T03:46:58;42.85;;;13.15;;
65174;SDS011;51761;42.126;24.752;2024-02-28T03:49:24;40.88;;;11.93;;
65174;SDS011;51761;42.126;24.752;2024-02-28T03:51:49;36.83;;;12.48;;
65174;SDS011;51761;42.126;24.752;2024-02-28T03:54:15;52.65;;;16.30;;
65174;SDS011;51761;42.126;24.752;2024-02-28T03:56:40;45.05;;;14.07;;
65174;SDS011;51761;42.126;24.752;2024-02-28T03:59:05;37.80;;;12.10;;
65174;SDS011;51761;42.126;24.752;2024-02-28T04:01:31;38.60;;;13.70;;
65174;SDS011;51761;42.126;24.752;2024-02-28T04:03:56;50.67;;;14.00;;
65174;SDS011;51761;42.126;24.752;2024-02-28T04:06:21;30.45;;;12.88;;
65174;SDS011;51761;42.126;24.752;2024-02-28T04:08:47;37.00;;;13.45;;
65174;SDS011;51761;42.126;24.752;2024-02-28T04:11:12;33.22;;;12.75;;
65174;SDS011;51761;42.126;24.752;2024-02-28T04:13:37;34.72;;;12.45;;
65174;SDS011;51761;42.126;24.752;2024-02-28T04:16:03;37.80;;;13.05;;
65174;SDS011;51761;42.126;24.752;2024-02-28T04:18:28;37.97;;;13.10;;
65174;SDS011;51761;42.126;24.752;2024-02-28T04:20:54;37.17;;;12.88;;
65174;SDS011;51761;42.126;24.752;2024-02-28T04:23:20;36.15;;;12.68;;
65174;SDS011;51761;42.126;24.752;2024-02-28T04:25:45;54.65;;;14.23;;
65174;SDS011;51761;42.126;24.752;2024-02-28T04:28:10;65.45;;;15.43;;
65174;SDS011;51761;42.126;24.752;2024-02-28T04:30:36;47.30;;;13.90;;
65174;SDS011;51761;42.126;24.752;2024-02-28T04:33:01;30.25;;;12.82;;
65174;SDS011;51761;42.126;24.752;2024-02-28T04:35:26;34.22;;;13.57;;
65174;SDS011;51761;42.126;24.752;2024-02-28T04:37:51;41.40;;;14.30;;
65174;SDS011;51761;42.126;24.752;2024-02-28T04:40:17;40.05;;;14.40;;
65174;SDS011;51761;42.126;24.752;2024-02-28T04:42:42;52.03;;;19.25;;
65174;SDS011;51761;42.126;24.752;2024-02-28T04:45:08;59.35;;;20.52;;
65174;SDS011;51761;42.126;24.752;2024-02-28T04:47:33;56.67;;;22.50;;
65174;SDS011;51761;42.126;24.752;2024-02-28T04:49:59;55.38;;;20.63;;
65174;SDS011;51761;42.126;24.752;2024-02-28T04:52:24;60.03;;;21.17;;
65174;SDS011;51761;42.126;24.752;2024-02-28T04:54:50;47.30;;;20.73;;
65174;SDS011;51761;42.126;24.752;2024-02-28T04:57:15;52.05;;;19.50;;
65174;SDS011;51761;42.126;24.752;2024-02-28T04:59:41;64.25;;;20.40;;
65174;SDS011;51761;42.126;24.752;2024-02-28T05:02:07;70.05;;;22.75;;
65174;SDS011;51761;42.126;24.752;2024-02-28T05:04:32;51.95;;;19.27;;
65174;SDS011;51761;42.126;24.752;2024-02-28T05:06:57;52.80;;;21.17;;
65174;SDS011;51761;42.126;24.752;2024-02-28T05:09:23;55.55;;;20.13;;
65174;SDS011;51761;42.126;24.752;2024-02-28T05:11:48;66.18;;;22.20;;
65174;SDS011;51761;42.126;24.752;2024-02-28T05:14:13;53.55;;;21.00;;
65174;SDS011;51761;42.126;24.752;2024-02-28T05:16:38;57.95;;;20.55;;
65174;SDS011;51761;42.126;24.752;2024-02-28T05:19:04;53.38;;;21.70;;
65174;SDS011;51761;42.126;24.752;2024-02-28T05:21:29;60.28;;;23.08;;
65174;SDS011;51761;42.126;24.752;2024-02-28T05:23:55;59.58;;;23.60;;
65174;SDS011;51761;42.126;24.752;2024-02-28T05:26:20;62.67;;;23.50;;
65174;SDS011;51761;42.126;24.752;2024-02-28T05:28:45;48.53;;;22.58;;
65174;SDS011;51761;42.126;24.752;2024-02-28T05:31:23;56.33;;;23.58;;
65174;SDS011;51761;42.126;24.752;2024-02-28T05:33:52;51.20;;;21.83;;
65174;SDS011;51761;42.126;24.752;2024-02-28T05:36:19;54.15;;;22.42;;
65174;SDS011;51761;42.126;24.752;2024-02-28T05:38:44;54.13;;;22.55;;
65174;SDS011;51761;42.126;24.752;2024-02-28T05:41:10;57.22;;;23.95;;
65174;SDS011;51761;42.126;24.752;2024-02-28T05:43:36;52.60;;;22.30;;
65174;SDS011;51761;42.126;24.752;2024-02-28T05:46:02;52.33;;;23.33;;
65174;SDS011;51761;42.126;24.752;2024-02-28T05:48:27;73.90;;;24.42;;
65174;SDS011;51761;42.126;24.752;2024-02-28T05:50:53;68.75;;;25.23;;
65174;SDS011;51761;42.126;24.752;2024-02-28T05:53:18;72.70;;;25.63;;
65174;SDS011;51761;42.126;24.752;2024-02-28T05:55:44;73.28;;;25.95;;
65174;SDS011;51761;42.126;24.752;2024-02-28T05:58:09;69.72;;;26.85;;
65174;SDS011;51761;42.126;24.752;2024-02-28T06:00:35;71.68;;;26.38;;
65174;SDS011;51761;42.126;24.752;2024-02-28T06:03:00;67.55;;;25.65;;
65174;SDS011;51761;42.126;24.752;2024-02-28T06:05:25;67.75;;;26.80;;
65174;SDS011;51761;42.126;24.752;2024-02-28T06:07:51;78.35;;;28.05;;
65174;SDS011;51761;42.126;24.752;2024-02-28T06:10:16;75.22;;;28.05;;
65174;SDS011;51761;42.126;24.752;2024-02-28T06:12:42;68.47;;;27.55;;
65174;SDS011;51761;42.126;24.752;2024-02-28T06:15:07;72.75;;;28.13;;
65174;SDS011;51761;42.126;24.752;2024-02-28T06:17:32;67.35;;;27.13;;
65174;SDS011;51761;42.126;24.752;2024-02-28T06:19:58;84.95;;;29.67;;
65174;SDS011;51761;42.126;24.752;2024-02-28T06:22:23;73.75;;;29.92;;
65174;SDS011;51761;42.126;24.752;2024-02-28T06:24:48;72.95;;;30.50;;
65174;SDS011;51761;42.126;24.752;2024-02-28T06:27:15;79.50;;;28.48;;
65174;SDS011;51761;42.126;24.752;2024-02-28T06:29:40;73.82;;;28.63;;
65174;SDS011;51761;42.126;24.752;2024-02-28T06:32:05;79.18;;;28.58;;
65174;SDS011;51761;42.126;24.752;2024-02-28T06:34:31;62.78;;;27.02;;
65174;SDS011;51761;42.126;24.752;2024-02-28T06:36:56;70.57;;;28.45;;
65174;SDS011;51761;42.126;24.752;2024-02-28T06:39:22;77.72;;;29.42;;
65174;SDS011;51761;42.126;24.752;2024-02-28T06:41:47;67.30;;;26.58;;
65174;SDS011;51761;42.126;24.752;2024-02-28T06:44:14;68.00;;;26.08;;
65174;SDS011;51761;42.126;24.752;2024-02-28T06:46:39;75.43;;;25.50;;
65174;SDS011;51761;42.126;24.752;2024-02-28T06:49:05;65.55;;;25.95;;
65174;SDS011;51761;42.126;24.752;2024-02-28T06:51:30;70.20;;;25.65;;
65174;SDS011;51761;42.126;24.752;2024-02-28T06:53:55;64.72;;;23.10;;
65174;SDS011;51761;42.126;24.752;2024-02-28T06:56:21;59.38;;;22.30;;
65174;SDS011;51761;42.126;24.752;2024-02-28T06:58:46;53.70;;;21.98;;
65174;SDS011;51761;42.126;24.752;2024-02-28T07:01:12;68.45;;;20.95;;
65174;SDS011;51761;42.126;24.752;2024-02-28T07:03:37;52.15;;;20.95;;
65174;SDS011;51761;42.126;24.752;2024-02-28T07:06:03;54.75;;;19.83;;
65174;SDS011;51761;42.126;24.752;2024-02-28T07:08:28;47.75;;;19.55;;
65174;SDS011;51761;42.126;24.752;2024-02-28T07:10:54;53.55;;;17.38;;
65174;SDS011;51761;42.126;24.752;2024-02-28T07:13:19;55.47;;;17.50;;
65174;SDS011;51761;42.126;24.752;2024-02-28T07:15:45;46.15;;;17.77;;
65174;SDS011;51761;42.126;24.752;2024-02-28T07:18:10;56.30;;;16.55;;
65174;SDS011;51761;42.126;24.752;2024-02-28T07:20:35;50.33;;;16.45;;
65174;SDS011;51761;42.126;24.752;2024-02-28T07:23:01;38.67;;;13.52;;
65174;SDS011;51761;42.126;24.752;2024-02-28T07:25:26;44.38;;;15.30;;
65174;SDS011;51761;42.126;24.752;2024-02-28T07:27:51;35.20;;;13.05;;
65174;SDS011;51761;42.126;24.752;2024-02-28T07:30:17;49.55;;;16.80;;
65174;SDS011;51761;42.126;24.752;2024-02-28T07:32:42;57.08;;;20.75;;
65174;SDS011;51761;42.126;24.752;2024-02-28T07:35:07;53.75;;;17.83;;
65174;SDS011;51761;42.126;24.752;2024-02-28T07:37:33;45.85;;;15.68;;
65174;SDS011;51761;42.126;24.752;2024-02-28T07:39:58;37.92;;;16.35;;
65174;SDS011;51761;42.126;24.752;2024-02-28T07:42:24;41.97;;;15.30;;
65174;SDS011;51761;42.126;24.752;2024-02-28T07:44:49;39.05;;;15.80;;
65174;SDS011;51761;42.126;24.752;2024-02-28T07:47:18;42.60;;;15.18;;
65174;SDS011;51761;42.126;24.752;2024-02-28T07:49:44;40.08;;;14.38;;
65174;SDS011;51761;42.126;24.752;2024-02-28T07:52:09;34.97;;;15.02;;
65174;SDS011;51761;42.126;24.752;2024-02-28T07:54:34;41.03;;;15.27;;
65174;SDS011;51761;42.126;24.752;2024-02-28T07:57:01;38.58;;;16.10;;
65174;SDS011;51761;42.126;24.752;2024-02-28T07:59:27;33.33;;;15.30;;
65174;SDS011;51761;42.126;24.752;2024-02-28T08:01:52;37.08;;;16.10;;
65174;SDS011;51761;42.126;24.752;2024-02-28T08:04:17;46.05;;;16.27;;
65174;SDS011;51761;42.126;24.752;2024-02-28T08:06:43;43.45;;;15.95;;
65174;SDS011;51761;42.126;24.752;2024-02-28T08:09:08;40.22;;;17.00;;
65174;SDS011;51761;42.126;24.752;2024-02-28T08:11:33;39.70;;;16.95;;
65174;SDS011;51761;42.126;24.752;2024-02-28T08:13:59;40.50;;;16.08;;
65174;SDS011;51761;42.126;24.752;2024-02-28T08:16:24;51.83;;;18.17;;
65174;SDS011;51761;42.126;24.752;2024-02-28T08:18:49;40.28;;;18.98;;
65174;SDS011;51761;42.126;24.752;2024-02-28T08:21:14;40.75;;;17.05;;
65174;SDS011;51761;42.126;24.752;2024-02-28T08:23:40;40.70;;;17.15;;
65174;SDS011;51761;42.126;24.752;2024-02-28T08:26:07;41.90;;;18.25;;
65174;SDS011;51761;42.126;24.752;2024-02-28T08:28:32;52.38;;;17.98;;
65174;SDS011;51761;42.126;24.752;2024-02-28T08:30:58;40.10;;;19.00;;
65174;SDS011;51761;42.126;24.752;2024-02-28T08:33:23;40.13;;;17.10;;
65174;SDS011;51761;42.126;24.752;2024-02-28T08:35:48;46.45;;;18.35;;
65174;SDS011;51761;42.126;24.752;2024-02-28T08:38:15;46.75;;;19.08;;
65174;SDS011;51761;42.126;24.752;2024-02-28T08:40:40;42.97;;;18.73;;
65174;SDS011;51761;42.126;24.752;2024-02-28T08:43:06;54.72;;;18.80;;
65174;SDS011;51761;42.126;24.752;2024-02-28T08:45:31;44.05;;;19.08;;
65174;SDS011;51761;42.126;24.752;2024-02-28T08:47:56;54.33;;;19.10;;
65174;SDS011;51761;42.126;24.752;2024-02-28T08:50:26;48.22;;;18.80;;
65174;SDS011;51761;42.126;24.752;2024-02-28T08:52:51;45.15;;;19.48;;
65174;SDS011;51761;42.126;24.752;2024-02-28T08:55:16;54.63;;;20.15;;
65174;SDS011;51761;42.126;24.752;2024-02-28T08:57:44;47.47;;;19.92;;
65174;SDS011;51761;42.126;24.752;2024-02-28T09:00:09;43.65;;;20.33;;
65174;SDS011;51761;42.126;24.752;2024-02-28T09:02:35;50.15;;;19.52;;
65174;SDS011;51761;42.126;24.752;2024-02-28T09:05:02;52.28;;;21.20;;
65174;SDS011;51761;42.126;24.752;2024-02-28T09:07:27;48.97;;;20.67;;
65174;SDS011;51761;42.126;24.752;2024-02-28T09:09:53;51.90;;;20.52;;
65174;SDS011;51761;42.126;24.752;2024-02-28T09:12:18;51.72;;;22.27;;
65174;SDS011;51761;42.126;24.752;2024-02-28T09:14:43;51.47;;;23.15;;
65174;SDS011;51761;42.126;24.752;2024-02-28T09:17:11;52.10;;;21.55;;
65174;SDS011;51761;42.126;24.752;2024-02-28T09:19:36;56.22;;;23.48;;
65174;SDS011;51761;42.126;24.752;2024-02-28T09:22:01;51.35;;;21.92;;
65174;SDS011;51761;42.126;24.752;2024-02-28T09:24:27;60.47;;;23.25;;
65174;SDS011;51761;42.126;24.752;2024-02-28T09:26:52;58.83;;;22.33;;
65174;SDS011;51761;42.126;24.752;2024-02-28T09:29:17;48.85;;;19.85;;
65174;SDS011;51761;42.126;24.752;2024-02-28T09:31:43;48.85;;;20.88;;
65174;SDS011;51761;42.126;24.752;2024-02-28T09:34:08;44.00;;;19.73;;
65174;SDS011;51761;42.126;24.752;2024-02-28T09:36:44;47.47;;;21.52;;
65174;SDS011;51761;42.126;24.752;2024-02-28T09:39:13;49.58;;;20.48;;
65174;SDS011;51761;42.126;24.752;2024-02-28T09:41:40;46.92;;;18.77;;
65174;SDS011;51761;42.126;24.752;2024-02-28T09:44:06;30.25;;;15.98;;
65174;SDS011;51761;42.126;24.752;2024-02-28T09:46:32;42.72;;;19.25;;
65174;SDS011;51761;42.126;24.752;2024-02-28T09:48:59;36.33;;;18.17;;
65174;SDS011;51761;42.126;24.752;2024-02-28T09:51:26;40.22;;;16.83;;
65174;SDS011;51761;42.126;24.752;2024-02-28T09:53:52;36.33;;;16.45;;
65174;SDS011;51761;42.126;24.752;2024-02-28T09:56:18;44.58;;;16.88;;
65174;SDS011;51761;42.126;24.752;2024-02-28T09:58:44;53.22;;;15.60;;
65174;SDS011;51761;42.126;24.752;2024-02-28T10:01:09;40.60;;;15.65;;
65174;SDS011;51761;42.126;24.752;2024-02-28T10:03:37;33.65;;;13.88;;
65174;SDS011;51761;42.126;24.752;2024-02-28T10:06:03;36.38;;;16.63;;
65174;SDS011;51761;42.126;24.752;2024-02-28T10:08:28;38.90;;;15.07;;
65174;SDS011;51761;42.126;24.752;2024-02-28T10:10:54;37.75;;;16.70;;
65174;SDS011;51761;42.126;24.752;2024-02-28T10:13:21;36.55;;;15.60;;
65174;SDS011;51761;42.126;24.752;2024-02-28T10:15:47;38.35;;;16.25;;
65174;SDS011;51761;42.126;24.752;2024-02-28T10:18:13;34.38;;;15.82;;
65174;SDS011;51761;42.126;24.752;2024-02-28T10:20:38;38.58;;;15.80;;
65174;SDS011;51761;42.126;24.752;2024-02-28T10:23:06;32.47;;;15.63;;
65174;SDS011;51761;42.126;24.752;2024-02-28T10:25:41;32.50;;;14.98;;
65174;SDS011;51761;42.126;24.752;2024-02-28T10:28:06;28.10;;;14.15;;
65174;SDS011;51761;42.126;24.752;2024-02-28T10:30:31;32.38;;;14.80;;
65174;SDS011;51761;42.126;24.752;2024-02-28T10:32:57;37.78;;;15.38;;
65174;SDS011;51761;42.126;24.752;2024-02-28T10:35:22;34.35;;;15.65;;
65174;SDS011;51761;42.126;24.752;2024-02-28T10:37:51;37.13;;;16.05;;
65174;SDS011;51761;42.126;24.752;2024-02-28T10:40:16;31.30;;;14.68;;
65174;SDS011;51761;42.126;24.752;2024-02-28T10:42:42;32.30;;;15.00;;
65174;SDS011;51761;42.126;24.752;2024-02-28T10:45:07;45.25;;;16.42;;
65174;SDS011;51761;42.126;24.752;2024-02-28T10:47:35;28.67;;;13.85;;
65174;SDS011;51761;42.126;24.752;2024-02-28T10:50:02;30.40;;;14.52;;
65174;SDS011;51761;42.126;24.752;2024-02-28T10:52:28;31.25;;;13.55;;
65174;SDS011;51761;42.126;24.752;2024-02-28T10:54:58;28.98;;;14.02;;
65174;SDS011;51761;42.126;24.752;2024-02-28T10:57:25;29.38;;;14.23;;
65174;SDS011;51761;42.126;24.752;2024-02-28T10:59:51;35.40;;;13.05;;
65174;SDS011;51761;42.126;24.752;2024-02-28T11:02:16;35.78;;;14.48;;
65174;SDS011;51761;42.126;24.752;2024-02-28T11:04:42;36.58;;;15.65;;
65174;SDS011;51761;42.126;24.752;2024-02-28T11:07:08;36.20;;;16.08;;
65174;SDS011;51761;42.126;24.752;2024-02-28T11:09:34;38.83;;;14.90;;
65174;SDS011;51761;42.126;24.752;2024-02-28T11:11:59;30.00;;;13.55;;
65174;SDS011;51761;42.126;24.752;2024-02-28T11:14:24;35.22;;;14.30;;
65174;SDS011;51761;42.126;24.752;2024-02-28T11:17:04;36.05;;;13.63;;
65174;SDS011;51761;42.126;24.752;2024-02-28T11:19:29;28.60;;;13.30;;
65174;SDS011;51761;42.126;24.752;2024-02-28T11:21:56;36.47;;;14.98;;
65174;SDS011;51761;42.126;24.752;2024-02-28T11:24:22;38.80;;;13.77;;
65174;SDS011;51761;42.126;24.752;2024-02-28T11:26:49;40.63;;;14.85;;
65174;SDS011;51761;42.126;24.752;2024-02-28T11:29:16;29.27;;;14.35;;
65174;SDS011;51761;42.126;24.752;2024-02-28T11:31:41;29.60;;;13.20;;
65174;SDS011;51761;42.126;24.752;2024-02-28T11:34:06;37.92;;;14.05;;
65174;SDS011;51761;42.126;24.752;2024-02-28T11:36:32;25.35;;;12.48;;
65174;SDS011;51761;42.126;24.752;2024-02-28T11:38:57;33.78;;;14.45;;
65174;SDS011;51761;42.126;24.752;2024-02-28T11:41:26;32.92;;;14.77;;
65174;SDS011;51761;42.126;24.752;2024-02-28T11:43:54;33.45;;;14.18;;
65174;SDS011;51761;42.126;24.752;2024-02-28T11:46:20;33.92;;;14.40;;
65174;SDS011;51761;42.126;24.752;2024-02-28T11:48:45;31.75;;;13.60;;
65174;SDS011;51761;42.126;24.752;2024-02-28T11:51:10;37.08;;;14.02;;
65174;SDS011;51761;42.126;24.752;2024-02-28T11:53:36;26.98;;;12.32;;
65174;SDS011;51761;42.126;24.752;2024-02-28T11:56:01;33.10;;;11.63;;
65174;SDS011;51761;42.126;24.752;2024-02-28T11:58:26;24.58;;;12.60;;
65174;SDS011;51761;42.126;24.752;2024-02-28T12:00:52;27.08;;;11.85;;
65174;SDS011;51761;42.126;24.752;2024-02-28T12:03:21;25.80;;;12.98;;
65174;SDS011;51761;42.126;24.752;2024-02-28T12:05:46;22.05;;;10.88;;
65174;SDS011;51761;42.126;24.752;2024-02-28T12:08:12;31.73;;;11.57;;
65174;SDS011;51761;42.126;24.752;2024-02-28T12:10:37;23.80;;;12.63;;
65174;SDS011;51761;42.126;24.752;2024-02-28T12:13:02;28.58;;;13.15;;
65174;SDS011;51761;42.126;24.752;2024-02-28T12:15:29;24.05;;;12.27;;
65174;SDS011;51761;42.126;24.752;2024-02-28T12:17:54;31.75;;;12.63;;
65174;SDS011;51761;42.126;24.752;2024-02-28T12:20:20;24.83;;;11.82;;
65174;SDS011;51761;42.126;24.752;2024-02-28T12:22:45;38.78;;;13.75;;
65174;SDS011;51761;42.126;24.752;2024-02-28T12:25:10;30.38;;;13.43;;
65174;SDS011;51761;42.126;24.752;2024-02-28T12:27:36;32.53;;;13.05;;
65174;SDS011;51761;42.126;24.752;2024-02-28T12:30:01;56.17;;;14.25;;
65174;SDS011;51761;42.126;24.752;2024-02-28T12:32:27;34.13;;;13.27;;
65174;SDS011;51761;42.126;24.752;2024-02-28T12:34:52;42.50;;;14.50;;
65174;SDS011;51761;42.126;24.752;2024-02-28T12:37:18;31.50;;;13.32;;
65174;SDS011;51761;42.126;24.752;2024-02-28T12:39:44;32.30;;;13.45;;
65174;SDS011;51761;42.126;24.752;2024-02-28T12:42:09;33.88;;;14.20;;
65174;SDS011;51761;42.126;24.752;2024-02-28T12:44:35;44.97;;;14.77;;
65174;SDS011;51761;42.126;24.752;2024-02-28T12:47:00;35.78;;;14.57;;
65174;SDS011;51761;42.126;24.752;2024-02-28T12:49:26;25.98;;;13.73;;
65174;SDS011;51761;42.126;24.752;2024-02-28T12:51:51;34.47;;;13.48;;
65174;SDS011;51761;42.126;24.752;2024-02-28T12:54:16;33.95;;;13.90;;
65174;SDS011;51761;42.126;24.752;2024-02-28T12:56:43;28.35;;;13.93;;
65174;SDS011;51761;42.126;24.752;2024-02-28T12:59:08;31.08;;;13.40;;
65174;SDS011;51761;42.126;24.752;2024-02-28T13:01:34;36.17;;;13.88;;
65174;SDS011;51761;42.126;24.752;2024-02-28T13:03:59;43.40;;;15.32;;
65174;SDS011;51761;42.126;24.752;2024-02-28T13:06:25;29.35;;;14.55;;
65174;SDS011;51761;42.126;24.752;2024-02-28T13:08:50;22.80;;;12.30;;
65174;SDS011;51761;42.126;24.752;2024-02-28T13:11:20;27.08;;;14.35;;
65174;SDS011;51761;42.126;24.752;2024-02-28T13:13:46;33.92;;;13.82;;
65174;SDS011;51761;42.126;24.752;2024-02-28T13:16:12;27.98;;;13.35;;
65174;SDS011;51761;42.126;24.752;2024-02-28T13:18:37;40.35;;;14.55;;
65174;SDS011;51761;42.126;24.752;2024-02-28T13:21:03;32.72;;;14.40;;
65174;SDS011;51761;42.126;24.752;2024-02-28T13:23:29;33.85;;;14.50;;
65174;SDS011;51761;42.126;24.752;2024-02-28T13:25:56;33.10;;;14.15;;
65174;SDS011;51761;42.126;24.752;2024-02-28T13:28:21;33.45;;;13.77;;
65174;SDS011;51761;42.126;24.752;2024-02-28T13:30:54;35.60;;;14.27;;
65174;SDS011;51761;42.126;24.752;2024-02-28T13:33:19;29.45;;;13.82;;
65174;SDS011;51761;42.126;24.752;2024-02-28T13:35:45;29.02;;;13.35;;
65174;SDS011;51761;42.126;24.752;2024-02-28T13:38:10;36.20;;;13.70;;
65174;SDS011;51761;42.126;24.752;2024-02-28T13:40:35;35.28;;;13.10;;
65174;SDS011;51761;42.126;24.752;2024-02-28T13:43:02;30.23;;;13.85;;
65174;SDS011;51761;42.126;24.752;2024-02-28T13:45:27;31.38;;;13.98;;
65174;SDS011;51761;42.126;24.752;2024-02-28T13:47:52;35.70;;;15.05;;
65174;SDS011;51761;42.126;24.752;2024-02-28T13:50:18;38.45;;;15.13;;
65174;SDS011;51761;42.126;24.752;2024-02-28T13:52:43;34.30;;;14.55;;
65174;SDS011;51761;42.126;24.752;2024-02-28T13:55:08;34.40;;;14.77;;
65174;SDS011;51761;42.126;24.752;2024-02-28T13:57:37;47.03;;;15.15;;
65174;SDS011;51761;42.126;24.752;2024-02-28T14:00:03;29.42;;;14.18;;